Terminal Aerodrome Forecast
Issued by NWS Wilmington, NC

Home | Current Version | Previous Version | Text Only | Print | Product List | Glossary On
Versions: 1 2 3 4 5 6 7 8 9 10 11 12 13 14 15 16 17 18 19 20 21
000
FTUS42 KILM 231720
TAFILM
TAF
KILM 231720Z 2318/2418 24006KT P6SM FEW040
     FM232200 22008KT P6SM VCTS SCT040CB
     FM240400 24006KT P6SM -SHRA VCTS BKN035CB
     FM241000 30004KT P6SM VCTS BKN030CB
     FM241200 01004KT P6SM BKN030
     FM241300 02004KT P6SM -SHRA VCTS BKN030CB=

USA.gov is the U.S. government's official web portal to all federal, state and local government web resources and services.